Time;durP1;ratioP1;P1;durP2;ratioP2;P2;SDS_P1;SDS_P2;PMS_P1;PMS_P2;Temp;Humidity;BMP_temperature;BMP_pressure;BME280_temperature;BME280_humidity;BME280_pressure;Samples;Min_cycle;Max_cycle;Signal;HPM_P1;HPM_P2
2022/04/26 03:38:04;;;;;;;16.23;12.40;;;;;;;9.83;70.82;100036.13;4876222;28;101671;-82
2022/04/26 03:40:29;;;;;;;17.10;11.68;;;;;;;9.97;70.72;100048.72;4876041;28;101691;-82
2022/04/26 03:42:55;;;;;;;16.42;12.23;;;;;;;10.05;70.74;100065.03;4876075;28;96870;-82
2022/04/26 03:45:22;;;;;;;18.38;11.38;;;;;;;10.09;70.52;100071.88;4876612;28;96834;-82
2022/04/26 03:47:49;;;;;;;18.35;12.73;;;;;;;9.92;70.82;100075.13;4892445;28;97948;-82
2022/04/26 03:50:14;;;;;;;18.60;11.35;;;;;;;9.94;71.24;100075.91;4876312;28;101581;-82
2022/04/26 03:52:40;;;;;;;15.93;11.52;;;;;;;9.88;70.99;100073.50;4860479;28;97141;-83
2022/04/26 03:55:06;;;;;;;18.42;11.23;;;;;;;9.87;71.43;100073.56;4892323;28;96820;-81
2022/04/26 03:57:32;;;;;;;17.55;11.57;;;;;;;9.68;71.48;100058.47;4860813;28;101239;-82
2022/04/26 03:59:58;;;;;;;17.23;12.02;;;;;;;9.89;71.22;100071.72;4859994;28;101561;-82
2022/04/26 04:02:23;;;;;;;14.63;11.93;;;;;;;9.94;71.11;100081.16;4860892;28;97098;-81
2022/04/26 04:04:49;;;;;;;15.80;12.38;;;;;;;9.94;71.02;100083.78;4891838;28;97163;-82
2022/04/26 04:07:15;;;;;;;18.33;12.90;;;;;;;9.95;71.26;100085.50;4876315;28;101774;-82
2022/04/26 04:09:40;;;;;;;15.80;11.65;;;;;;;9.76;71.33;100066.06;4876204;28;100964;-82
2022/04/26 04:12:07;;;;;;;17.65;11.23;;;;;;;9.95;71.16;100103.84;4876037;28;96947;-82
2022/04/26 04:14:32;;;;;;;18.30;12.30;;;;;;;9.92;71.35;100100.50;4844767;28;96841;-82
2022/04/26 04:16:58;;;;;;;18.52;11.40;;;;;;;9.94;71.25;100107.38;4859870;28;101640;-82
2022/04/26 04:19:25;;;;;;;16.95;11.75;;;;;;;9.91;71.52;100101.38;4875851;28;97395;-82
2022/04/26 04:21:51;;;;;;;16.38;11.30;;;;;;;9.90;71.45;100111.03;4844064;28;96673;-82
2022/04/26 04:24:18;;;;;;;15.18;11.82;;;;;;;9.72;71.77;100077.59;4860548;28;96722;-82
2022/04/26 04:26:44;;;;;;;17.00;11.98;;;;;;;9.96;71.21;100110.81;4860543;28;97535;-82
2022/04/26 04:29:10;;;;;;;17.55;11.68;;;;;;;10.00;71.29;100105.44;4844129;28;101420;-82
2022/04/26 04:31:36;;;;;;;18.13;11.82;;;;;;;9.92;71.23;100085.63;4845194;28;96728;-82
2022/04/26 04:34:02;;;;;;;19.35;12.25;;;;;;;9.98;71.21;100095.88;4875832;28;97342;-82
2022/04/26 04:36:28;;;;;;;14.30;11.02;;;;;;;10.02;70.62;100122.00;4860435;28;101887;-81
2022/04/26 04:38:55;;;;;;;16.40;11.55;;;;;;;10.02;70.98;100124.63;4859275;28;101389;-83
2022/04/26 04:41:20;;;;;;;14.80;11.43;;;;;;;10.07;71.09;100133.19;4860208;28;97870;-82
2022/04/26 04:43:46;;;;;;;17.70;11.35;;;;;;;10.01;71.01;100136.03;4859028;28;97701;-84
2022/04/26 04:46:11;;;;;;;20.65;12.15;;;;;;;10.00;71.15;100139.53;4875868;28;102003;-82
2022/04/26 04:48:37;;;;;;;14.95;11.07;;;;;;;9.53;71.08;100079.97;4859950;28;101273;-82
2022/04/26 04:51:02;;;;;;;15.18;10.75;;;;;;;9.84;71.82;100118.25;4875396;28;96713;-82
2022/04/26 04:53:28;;;;;;;14.25;11.45;;;;;;;9.96;71.70;100159.78;4876031;28;97015;-83
2022/04/26 04:55:54;;;;;;;14.52;11.52;;;;;;;9.91;71.63;100153.81;4859195;28;101220;-82
2022/04/26 04:58:19;;;;;;;19.20;11.10;;;;;;;9.95;71.62;100163.31;4860484;28;100148;-82
2022/04/26 05:00:45;;;;;;;12.48;9.98;;;;;;;9.86;70.94;100146.13;4875460;28;96714;-82
2022/04/26 05:03:10;;;;;;;12.75;10.18;;;;;;;10.10;70.52;100168.03;4859646;28;97234;-82
2022/04/26 05:05:36;;;;;;;14.52;11.50;;;;;;;10.06;70.71;100171.66;4859288;28;97497;-82
2022/04/26 05:08:02;;;;;;;13.75;10.30;;;;;;;10.02;70.65;100151.69;4875175;28;101784;-82
2022/04/26 05:10:30;;;;;;;18.30;11.35;;;;;;;9.83;70.63;100134.88;4875499;28;96881;-82
2022/04/26 05:12:55;;;;;;;15.00;10.15;;;;;;;9.92;70.68;100159.03;4859910;28;96998;-82
2022/04/26 05:15:21;;;;;;;16.52;10.65;;;;;;;10.01;70.74;100175.38;4875267;28;101099;-81
2022/04/26 05:17:46;;;;;;;13.68;10.88;;;;;;;9.87;70.42;100139.13;4875287;28;101880;-83
2022/04/26 05:20:12;;;;;;;14.20;10.68;;;;;;;10.11;70.41;100179.38;4874753;28;96605;-82
2022/04/26 05:25:22;;;;;;;14.95;11.02;;;;;;;10.30;69.72;100179.63;4861650;28;101454;-81
2022/04/26 05:27:48;;;;;;;14.88;10.95;;;;;;;10.22;69.98;100174.63;4859511;28;101215;-82
2022/04/26 05:30:13;;;;;;;14.65;9.80;;;;;;;10.33;69.96;100184.78;4874307;28;97421;-82
2022/04/26 05:32:39;;;;;;;14.90;10.20;;;;;;;10.11;70.17;100140.03;4877069;28;97269;-82
2022/04/26 05:35:06;;;;;;;16.95;10.90;;;;;;;10.15;70.01;100155.63;4862299;28;98013;-82
2022/04/26 05:37:31;;;;;;;14.32;10.23;;;;;;;10.24;70.31;100170.19;4847349;28;101360;-82
2022/04/26 05:40:01;;;;;;;16.52;10.95;;;;;;;10.34;70.09;100184.72;4861922;28;97259;-82
2022/04/26 05:42:30;;;;;;;17.60;11.25;;;;;;;10.06;69.91;100139.31;4863228;28;96666;-82
2022/04/26 05:44:56;;;;;;;14.45;10.95;;;;;;;10.45;70.21;100192.22;4861745;28;101668;-82
2022/04/26 05:47:22;;;;;;;16.38;12.25;;;;;;;10.20;69.60;100148.44;4862574;28;101356;-82
2022/04/26 05:49:48;;;;;;;17.02;12.45;;;;;;;10.38;69.90;100182.81;4862352;28;96766;-83
2022/04/26 05:52:13;;;;;;;17.85;13.35;;;;;;;10.32;70.12;100175.19;4878004;28;96949;-83
2022/04/26 05:54:39;;;;;;;16.50;12.82;;;;;;;10.40;70.07;100186.25;4877524;28;101235;-82
2022/04/26 05:57:05;;;;;;;18.83;13.15;;;;;;;10.46;70.01;100180.78;4877802;28;98030;-82
2022/04/26 05:59:32;;;;;;;22.65;12.50;;;;;;;10.19;69.92;100117.88;4862412;28;96927;-82
2022/04/26 06:01:58;;;;;;;18.02;12.10;;;;;;;10.75;69.30;100184.13;4878292;28;96928;-83
2022/04/26 06:04:25;;;;;;;15.55;12.25;;;;;;;10.77;69.09;100185.78;4878150;28;97823;-82
2022/04/26 06:06:51;;;;;;;18.02;12.13;;;;;;;10.82;68.58;100188.22;4862288;28;101943;-84
2022/04/26 06:09:16;;;;;;;21.10;12.43;;;;;;;10.86;68.75;100179.34;4846098;28;97182;-83
2022/04/26 06:11:42;;;;;;;16.95;12.20;;;;;;;10.91;68.39;100193.16;4878626;28;96736;-83
2022/04/26 06:14:08;;;;;;;17.02;12.50;;;;;;;10.92;67.99;100183.50;4861449;28;101402;-83
2022/04/26 06:16:34;;;;;;;18.63;11.90;;;;;;;10.88;67.70;100170.50;4894521;28;97805;-82
2022/04/26 06:18:59;;;;;;;16.80;11.75;;;;;;;11.05;68.14;100196.13;4876287;28;97328;-83
2022/04/26 06:21:25;;;;;;;17.75;11.93;;;;;;;11.06;68.07;100187.31;4878534;28;96808;-82
2022/04/26 06:23:50;;;;;;;16.17;11.30;;;;;;;11.28;68.23;100191.75;4877812;28;97488;-83
2022/04/26 06:26:16;;;;;;;16.63;11.88;;;;;;;11.16;67.78;100147.56;4861784;28;101489;-82
2022/04/26 06:28:42;;;;;;;15.48;11.90;;;;;;;11.44;67.44;100192.88;4877528;28;96706;-84
2022/04/26 06:31:07;;;;;;;15.07;11.18;;;;;;;11.45;66.91;100180.56;4877183;28;97006;-82
2022/04/26 06:33:34;;;;;;;17.73;11.23;;;;;;;11.62;66.44;100166.75;4862466;28;97568;-83
2022/04/26 06:36:00;;;;;;;13.07;10.52;;;;;;;11.51;66.77;100157.50;4893494;28;98588;-82
2022/04/26 06:38:26;;;;;;;16.38;11.45;;;;;;;11.85;66.43;100198.25;4878101;28;96758;-82
2022/04/26 06:40:52;;;;;;;16.40;10.73;;;;;;;11.79;66.00;100195.84;4861729;28;97136;-81
2022/04/26 06:43:18;;;;;;;15.57;10.40;;;;;;;11.67;66.03;100198.97;4857339;28;101285;-81
2022/04/26 06:45:46;;;;;;;14.77;10.65;;;;;;;11.64;65.96;100201.75;4873708;28;101663;-82
2022/04/26 06:48:12;;;;;;;12.48;10.18;;;;;;;11.45;65.91;100170.06;4858708;28;97194;-82
2022/04/26 06:50:38;;;;;;;15.30;9.95;;;;;;;11.44;65.71;100155.22;4858648;28;96917;-82
2022/04/26 06:53:04;;;;;;;19.27;11.52;;;;;;;11.74;65.21;100206.53;4858318;28;97705;-83
2022/04/26 06:55:30;;;;;;;14.18;10.68;;;;;;;11.71;64.92;100208.44;4858381;28;98884;-82
2022/04/26 06:57:56;;;;;;;16.60;10.07;;;;;;;11.89;64.92;100210.34;4858469;28;96605;-86
2022/04/26 07:00:21;;;;;;;13.50;9.35;;;;;;;11.98;65.16;100173.16;4875760;28;96825;-82
2022/04/26 07:02:47;;;;;;;17.80;11.55;;;;;;;12.23;64.36;100207.16;4858516;28;101451;-83
2022/04/26 07:05:14;;;;;;;13.38;10.38;;;;;;;12.39;64.05;100223.19;4889650;28;97610;-82
2022/04/26 07:07:40;;;;;;;18.02;10.75;;;;;;;12.29;63.19;100210.47;4857956;28;97476;-83
2022/04/26 07:10:06;;;;;;;15.40;9.93;;;;;;;12.21;63.83;100192.34;4857806;28;97152;-83
2022/04/26 07:12:32;;;;;;;13.20;10.20;;;;;;;12.52;63.24;100222.63;4842911;28;101398;-83
2022/04/26 07:14:58;;;;;;;16.30;9.80;;;;;;;12.26;62.52;100174.59;4857463;28;101417;-83
2022/04/26 07:17:24;;;;;;;14.18;9.35;;;;;;;12.46;62.92;100211.44;4858361;28;96879;-82
2022/04/26 07:19:49;;;;;;;18.02;9.30;;;;;;;12.49;62.14;100218.34;4858129;28;97111;-82
2022/04/26 07:22:15;;;;;;;14.30;8.80;;;;;;;12.51;61.90;100205.09;4857891;28;101488;-82
2022/04/26 07:24:41;;;;;;;14.20;9.27;;;;;;;12.69;62.31;100205.16;4842546;28;101069;-83
2022/04/26 07:27:07;;;;;;;11.35;8.45;;;;;;;13.04;61.57;100215.91;4857878;28;97513;-82
2022/04/26 07:29:32;;;;;;;12.65;8.80;;;;;;;13.05;60.96;100206.19;4842182;28;97844;-82
2022/04/26 07:31:58;;;;;;;20.05;10.00;;;;;;;13.29;60.75;100238.50;4857718;28;98038;-85
2022/04/26 07:34:25;;;;;;;16.33;10.07;;;;;;;13.29;60.74;100231.47;4857621;28;100993;-83
2022/04/26 07:36:59;;;;;;;16.98;8.88;;;;;;;14.06;59.71;100209.28;4842512;28;97129;-83
2022/04/26 07:39:25;;;;;;;10.50;6.82;;;;;;;15.08;56.37;100234.81;4858799;28;97367;-82
2022/04/26 07:41:51;;;;;;;10.60;7.65;;;;;;;15.82;54.72;100239.56;4857808;28;101442;-83
2022/04/26 07:44:17;;;;;;;11.68;6.70;;;;;;;16.28;53.36;100207.72;4872376;28;101183;-82
2022/04/26 07:46:44;;;;;;;10.82;6.88;;;;;;;16.43;51.82;100203.31;4857855;28;96876;-82
2022/04/26 07:49:09;;;;;;;10.30;7.68;;;;;;;16.46;51.15;100224.34;4857254;28;96962;-82
2022/04/26 07:51:35;;;;;;;8.50;6.40;;;;;;;16.46;50.53;100223.47;4858181;28;98449;-82
2022/04/26 07:54:01;;;;;;;11.93;6.88;;;;;;;16.03;51.28;100192.47;4856871;28;98207;-83
2022/04/26 07:56:31;;;;;;;12.52;7.47;;;;;;;16.01;51.88;100233.19;4872306;28;97009;-82
2022/04/26 07:58:58;;;;;;;17.45;7.20;;;;;;;16.50;51.80;100239.09;4857576;28;97167;-83
2022/04/26 08:01:26;;;;;;;13.40;7.03;;;;;;;16.70;51.07;100239.72;4857595;28;101776;-82
2022/04/26 08:03:52;;;;;;;15.60;6.85;;;;;;;16.75;51.20;100242.91;4852341;28;101783;-82
2022/04/26 08:06:18;;;;;;;8.13;5.65;;;;;;;16.64;50.52;100219.72;4857491;28;96726;-81
2022/04/26 08:08:44;;;;;;;11.07;6.13;;;;;;;16.41;50.00;100229.06;4873643;28;96846;-81
2022/04/26 08:11:12;;;;;;;13.93;6.60;;;;;;;16.95;50.03;100241.72;4841417;28;101395;-82
2022/04/26 08:13:42;;;;;;;10.38;7.07;;;;;;;17.61;49.11;100234.91;4858048;28;96761;-82
2022/04/26 08:16:09;;;;;;;8.45;5.90;;;;;;;18.29;46.42;100257.91;4873248;28;96673;-82
2022/04/26 08:18:34;;;;;;;9.57;5.97;;;;;;;18.66;46.01;100215.53;4857661;28;96785;-82
2022/04/26 08:21:00;;;;;;;9.80;5.85;;;;;;;19.26;45.66;100249.47;4856583;28;101531;-83
2022/04/26 08:23:26;;;;;;;7.18;5.70;;;;;;;19.88;44.50;100254.72;4857330;28;97940;-83
2022/04/26 08:28:35;;;;;;;14.95;6.32;;;;;;;21.01;42.06;100250.56;4859609;28;96914;-83
2022/04/26 08:31:01;;;;;;;6.50;5.65;;;;;;;20.69;42.70;100231.75;4873181;28;97676;-82
2022/04/26 08:33:28;;;;;;;13.20;6.15;;;;;;;20.20;42.90;100247.94;4857304;28;100026;-81
2022/04/26 08:35:54;;;;;;;11.23;6.35;;;;;;;19.62;43.81;100224.63;4873128;28;97351;-80
2022/04/26 08:38:19;;;;;;;10.57;6.43;;;;;;;20.12;43.21;100213.88;4873322;28;96886;-82
2022/04/26 08:40:45;;;;;;;9.18;5.20;;;;;;;21.05;42.00;100215.63;4856740;28;101476;-83
2022/04/26 08:43:11;;;;;;;10.40;5.95;;;;;;;21.22;41.73;100249.84;4856706;28;97537;-80
2022/04/26 08:45:41;;;;;;;7.53;5.75;;;;;;;20.51;41.82;100244.66;4856780;28;98053;-83
2022/04/26 08:51:00;;;;;;;9.50;5.22;;;;;;;20.67;41.17;100264.84;4886646;28;97988;-83
2022/04/26 08:53:27;;;;;;;8.43;5.50;;;;;;;20.88;40.96;100254.31;4857682;28;98053;-82
2022/04/26 08:56:06;;;;;;;9.55;5.32;;;;;;;20.79;40.19;100261.22;4854867;28;97379;-82
2022/04/26 08:58:33;;;;;;;9.20;5.03;;;;;;;21.32;39.77;100264.16;4872588;28;97109;-80
2022/04/26 09:01:27;;;;;;;5.25;4.75;;;;;;;21.91;37.95;100258.47;4856800;28;101666;-79
2022/04/26 09:03:55;;;;;;;5.47;4.00;;;;;;;22.36;38.05;100247.63;4837024;28;101413;-83
2022/04/26 09:06:30;;;;;;;6.65;4.28;;;;;;;21.86;38.36;100251.81;4856802;28;96903;-80
2022/04/26 09:09:06;;;;;;;5.32;3.80;;;;;;;22.76;36.70;100262.94;4875267;28;96840;-83
2022/04/26 09:11:34;;;;;;;6.63;4.50;;;;;;;22.60;36.09;100246.50;4844325;28;101128;-82
2022/04/26 09:14:02;;;;;;;8.13;5.15;;;;;;;22.22;36.82;100268.47;4844284;28;100993;-81
2022/04/26 09:16:28;;;;;;;5.45;4.50;;;;;;;22.37;37.02;100272.56;4844479;28;96664;-81
2022/04/26 09:18:58;;;;;;;12.07;4.65;;;;;;;21.97;37.32;100273.16;4875473;28;96975;-83
2022/04/26 09:21:28;;;;;;;6.95;3.92;;;;;;;21.89;37.95;100257.75;4859924;28;101688;-80
2022/04/26 09:23:59;;;;;;;7.05;4.28;;;;;;;21.42;38.09;100262.47;4843588;28;101106;-83
2022/04/26 09:26:32;;;;;;;5.53;3.85;;;;;;;21.09;39.26;100268.66;4859455;28;97267;-81
2022/04/26 09:28:58;;;;;;;8.07;4.63;;;;;;;20.84;38.65;100239.53;4843988;28;96876;-81
2022/04/26 09:31:26;;;;;;;7.85;4.50;;;;;;;20.85;38.52;100257.22;4844205;28;102052;-81
2022/04/26 09:33:53;;;;;;;7.95;5.05;;;;;;;21.36;37.91;100259.44;4859449;28;98480;-80
2022/04/26 09:36:22;;;;;;;7.80;4.50;;;;;;;21.96;38.73;100270.59;4859141;28;97784;-82
2022/04/26 09:38:53;;;;;;;6.53;3.42;;;;;;;21.80;38.45;100255.00;4859805;28;97012;-83
2022/04/26 09:41:18;;;;;;;5.25;3.90;;;;;;;21.77;37.71;100266.78;4875503;28;98024;-80
2022/04/26 09:44:14;;;;;;;5.85;4.18;;;;;;;22.07;36.40;100267.91;4874711;28;97821;-82
2022/04/26 09:46:40;;;;;;;11.98;4.43;;;;;;;22.17;36.37;100265.31;4859720;28;96718;-81
2022/04/26 09:49:06;;;;;;;6.10;4.22;;;;;;;21.96;35.98;100241.22;4875350;28;96800;-81
2022/04/26 09:51:31;;;;;;;6.82;4.38;;;;;;;21.99;36.40;100259.66;4859664;28;97973;-80
2022/04/26 09:53:57;;;;;;;4.15;3.55;;;;;;;21.51;35.68;100203.97;4875543;28;97668;-81
2022/04/26 09:56:25;;;;;;;5.07;3.97;;;;;;;21.78;35.91;100238.25;4859520;28;98087;-81
2022/04/26 09:58:51;;;;;;;9.13;3.78;;;;;;;21.82;36.09;100253.91;4859216;28;97214;-82
2022/04/26 10:01:17;;;;;;;6.13;4.03;;;;;;;21.75;36.11;100250.03;4858931;28;98214;-81
2022/04/26 10:03:45;;;;;;;6.65;3.50;;;;;;;20.92;36.61;100240.63;4843455;28;101886;-81
2022/04/26 10:06:16;;;;;;;8.68;3.60;;;;;;;20.87;37.25;100245.47;4858900;28;97022;-81
2022/04/26 10:08:42;;;;;;;5.23;3.40;;;;;;;20.64;37.02;100252.59;4859693;28;97060;-82
2022/04/26 10:11:07;;;;;;;3.47;3.13;;;;;;;20.14;36.92;100241.25;4859171;28;101276;-81
2022/04/26 10:13:36;;;;;;;4.68;3.58;;;;;;;19.73;37.62;100242.53;4859071;28;97573;-82
2022/04/26 10:16:05;;;;;;;4.22;3.50;;;;;;;19.80;37.48;100264.22;4874824;28;96759;-81
2022/04/26 10:18:44;;;;;;;5.95;3.22;;;;;;;19.50;37.89;100238.84;4858777;28;96898;-82
2022/04/26 10:21:12;;;;;;;3.97;2.90;;;;;;;19.81;38.71;100261.47;4859378;28;101906;-83
2022/04/26 10:24:03;;;;;;;5.05;3.20;;;;;;;20.02;40.08;100259.03;4858850;28;101211;-81
2022/04/26 10:26:29;;;;;;;;;;;;;;;19.59;38.91;100258.63;4875986;28;96662;-81
2022/04/26 10:28:57;;;;;;;5.35;3.63;;;;;;;19.40;39.41;100262.63;4874165;28;96938;-82
2022/04/26 10:31:38;;;;;;;5.28;3.45;;;;;;;19.28;39.73;100257.31;4874873;28;98588;-81
2022/04/26 10:34:26;;;;;;;10.05;4.38;;;;;;;19.06;39.29;100248.22;4890278;28;101549;-81
2022/04/26 10:36:55;;;;;;;5.93;4.10;;;;;;;19.09;39.36;100257.78;4890713;28;97187;-81
2022/04/26 10:39:32;;;;;;;8.25;4.18;;;;;;;19.12;39.37;100254.91;4874015;28;96827;-81
2022/04/26 10:42:00;;;;;;;7.05;4.25;;;;;;;19.01;39.80;100258.31;4890529;28;101991;-82
2022/04/26 10:44:28;;;;;;;10.77;4.80;;;;;;;18.84;40.33;100258.63;4858188;28;101690;-81
2022/04/26 10:46:57;;;;;;;5.30;3.70;;;;;;;18.62;40.04;100252.13;4859018;28;96656;-82
2022/04/26 10:49:23;;;;;;;4.43;3.25;;;;;;;18.58;39.86;100258.59;4858053;28;96936;-81
2022/04/26 10:51:53;;;;;;;5.70;3.80;;;;;;;18.31;40.11;100240.06;4889999;28;101552;-82
2022/04/26 10:55:07;;;;;;;5.10;4.20;;;;;;;18.09;40.52;100257.44;4841930;28;101550;-81
2022/04/26 10:57:44;;;;;;;6.78;3.85;;;;;;;17.98;40.95;100249.34;4874167;28;96741;-81
2022/04/26 11:00:27;;;;;;;11.43;4.20;;;;;;;18.07;41.56;100258.50;4858240;28;96737;-81
2022/04/26 11:02:59;;;;;;;4.55;3.70;;;;;;;17.94;41.55;100253.13;4858416;28;102168;-81
2022/04/26 11:05:26;;;;;;;4.78;3.92;;;;;;;17.88;40.84;100242.91;4842179;28;101729;-82
2022/04/26 11:07:53;;;;;;;8.00;4.90;;;;;;;17.61;41.40;100248.19;4874074;28;96781;-81
2022/04/26 11:10:20;;;;;;;6.50;4.72;;;;;;;17.55;41.48;100252.09;4858298;28;96790;-82
2022/04/26 11:12:46;;;;;;;6.10;4.32;;;;;;;17.18;42.21;100245.59;4858435;28;97684;-82
2022/04/26 11:15:14;;;;;;;6.75;4.68;;;;;;;17.00;42.86;100231.69;4842161;28;101736;-81
2022/04/26 11:17:41;;;;;;;7.05;4.18;;;;;;;17.09;43.18;100262.94;4858224;28;96659;-81
2022/04/26 11:20:20;;;;;;;6.88;4.75;;;;;;;17.14;43.41;100262.66;4858183;28;96900;-81
2022/04/26 11:22:50;;;;;;;6.35;4.47;;;;;;;17.18;43.16;100262.34;4858563;28;97705;-81
2022/04/26 11:28:11;;;;;;;5.38;4.10;;;;;;;17.18;41.31;100261.50;4876482;28;97067;-81
2022/04/26 11:30:36;;;;;;;6.03;3.90;;;;;;;17.27;41.62;100268.88;4842477;28;96851;-81
2022/04/26 11:33:05;;;;;;;5.43;3.80;;;;;;;17.24;41.29;100270.88;4858027;28;101592;-82
2022/04/26 11:35:31;;;;;;;5.35;3.78;;;;;;;17.17;41.61;100273.09;4873631;28;97672;-81
2022/04/26 11:38:01;;;;;;;4.30;3.00;;;;;;;17.18;41.68;100265.00;4874061;28;96758;-81
2022/04/26 11:40:29;;;;;;;6.30;3.65;;;;;;;17.26;41.90;100277.81;4857787;28;96638;-81
2022/04/26 11:42:57;;;;;;;3.90;3.00;;;;;;;17.19;42.42;100256.13;4872762;28;97972;-82
2022/04/26 11:45:29;;;;;;;9.95;3.90;;;;;;;17.45;42.50;100272.19;4857839;28;98162;-81
2022/04/26 11:47:56;;;;;;;10.20;3.50;;;;;;;17.53;42.89;100280.50;4858417;28;97135;-82
2022/04/26 11:50:24;;;;;;;9.55;3.75;;;;;;;17.43;42.56;100260.84;4857773;28;97258;-81
2022/04/26 11:52:50;;;;;;;8.13;3.78;;;;;;;17.42;41.53;100278.56;4857649;28;101360;-82
2022/04/26 11:55:42;;;;;;;5.57;4.15;;;;;;;17.35;41.36;100284.34;4857613;28;97983;-82
2022/04/26 11:58:15;;;;;;;;;;;;;;;17.25;41.21;100276.13;4858395;28;96795;-81
2022/04/26 12:00:53;;;;;;;6.38;2.92;;;;;;;17.26;40.95;100275.16;4857688;28;96921;-81
2022/04/26 12:03:20;;;;;;;5.40;2.70;;;;;;;17.25;40.35;100259.31;4888862;28;101687;-82
2022/04/26 12:05:51;;;;;;;3.83;2.55;;;;;;;17.25;39.84;100252.25;4857010;28;101708;-81
2022/04/26 12:08:17;;;;;;;5.00;2.50;;;;;;;17.37;39.79;100266.53;4841742;28;97514;-82
2022/04/26 12:10:46;;;;;;;4.45;2.30;;;;;;;17.37;39.45;100261.22;4841504;28;97832;-81
2022/04/26 12:13:12;;;;;;;3.33;2.88;;;;;;;17.32;40.01;100258.00;4842373;28;100570;-81
2022/04/26 12:15:38;;;;;;;3.90;3.30;;;;;;;17.20;40.08;100257.81;4856823;28;100498;-82
2022/04/26 12:18:14;;;;;;;5.43;3.42;;;;;;;17.30;40.83;100267.84;4857653;28;96680;-82
2022/04/26 12:20:56;;;;;;;4.05;3.03;;;;;;;17.23;39.50;100270.03;4857037;28;96800;-82
2022/04/26 12:23:23;;;;;;;4.35;3.20;;;;;;;16.86;39.21;100226.38;4856890;28;101714;-82
2022/04/26 12:25:53;;;;;;;4.03;2.80;;;;;;;16.95;39.58;100241.72;4857396;28;101484;-81
2022/04/26 12:28:19;;;;;;;3.70;3.28;;;;;;;17.02;39.84;100264.28;4857375;28;96818;-85
2022/04/26 12:30:45;;;;;;;5.95;3.33;;;;;;;16.65;39.47;100232.03;4841443;28;97378;-82
2022/04/26 12:33:10;;;;;;;5.53;3.33;;;;;;;16.68;39.75;100260.16;4856670;28;102147;-81
2022/04/26 12:35:36;;;;;;;4.68;3.00;;;;;;;16.63;39.90;100255.09;4856527;28;100326;-81
2022/04/26 12:38:07;;;;;;;4.65;3.05;;;;;;;16.63;40.17;100267.50;4857173;28;96717;-82
2022/04/26 12:40:33;;;;;;;4.82;3.17;;;;;;;16.63;40.10;100259.56;4856599;28;97027;-82
2022/04/26 12:42:59;;;;;;;5.78;3.45;;;;;;;16.68;40.17;100265.44;4858848;28;97814;-83
2022/04/26 12:45:25;;;;;;;4.35;3.30;;;;;;;16.54;40.25;100242.41;4859607;28;101306;-82
2022/04/26 12:51:25;;;;;;;11.93;5.25;;;;;;;16.68;40.55;100265.44;4876297;28;96979;-82
2022/04/26 12:53:52;;;;;;;9.98;3.70;;;;;;;16.47;41.65;100254.34;4859608;28;101654;-83
2022/04/26 12:56:18;;;;;;;7.10;3.90;;;;;;;16.26;42.20;100253.78;4876748;28;97703;-81
2022/04/26 12:58:45;;;;;;;9.73;3.90;;;;;;;15.80;43.66;100259.09;4859212;28;97610;-83
2022/04/26 13:01:11;;;;;;;6.80;4.05;;;;;;;15.71;43.96;100257.84;4860360;28;97582;-82
2022/04/26 13:03:38;;;;;;;8.05;3.80;;;;;;;15.72;44.48;100258.69;4875470;28;98673;-82
2022/04/26 13:06:07;;;;;;;3.97;3.58;;;;;;;15.64;44.41;100264.34;4875871;28;98479;-81
2022/04/26 13:08:33;;;;;;;6.72;3.60;;;;;;;15.45;44.57;100246.03;4875582;28;96786;-83
2022/04/26 13:10:59;;;;;;;8.48;3.97;;;;;;;15.48;44.67;100268.81;4859998;28;96867;-81
2022/04/26 13:13:27;;;;;;;5.85;3.90;;;;;;;15.35;44.48;100258.03;4859602;28;101221;-83
2022/04/26 13:15:53;;;;;;;5.38;3.97;;;;;;;15.29;45.02;100267.16;4875294;28;101458;-82
2022/04/26 13:18:19;;;;;;;6.28;4.22;;;;;;;15.23;45.41;100262.19;4860146;28;96793;-81
2022/04/26 13:20:45;;;;;;;9.40;3.78;;;;;;;15.27;45.59;100249.66;4859468;28;96998;-81
2022/04/26 13:23:15;;;;;;;5.80;3.83;;;;;;;15.43;45.28;100262.91;4874907;28;101448;-83
2022/04/26 13:25:41;;;;;;;5.70;4.22;;;;;;;15.33;45.58;100266.06;4874825;28;100616;-81
2022/04/26 13:28:07;;;;;;;5.80;4.38;;;;;;;15.22;45.95;100262.31;4875817;28;97059;-81
2022/04/26 13:30:33;;;;;;;7.28;3.97;;;;;;;15.00;46.12;100220.28;4859272;28;96985;-81
2022/04/26 13:32:59;;;;;;;6.93;3.88;;;;;;;15.25;46.24;100264.78;4875962;28;97915;-82
2022/04/26 13:35:27;;;;;;;7.97;4.20;;;;;;;15.11;46.27;100247.84;4875065;28;100436;-85
2022/04/26 13:37:55;;;;;;;7.40;4.05;;;;;;;15.05;46.55;100242.06;4875570;28;96710;-82
2022/04/26 13:40:21;;;;;;;5.63;4.22;;;;;;;15.29;46.71;100261.88;4891869;28;96910;-82
2022/04/26 13:42:48;;;;;;;5.38;3.58;;;;;;;15.36;46.42;100254.47;4893257;28;101036;-82
2022/04/26 13:45:14;;;;;;;4.03;3.05;;;;;;;15.36;46.53;100241.25;4862129;28;101779;-82
2022/04/26 13:47:40;;;;;;;5.22;3.83;;;;;;;15.57;46.63;100255.06;4861608;28;97311;-82
2022/04/26 13:50:07;;;;;;;8.25;4.35;;;;;;;15.53;46.38;100246.47;4893930;28;97431;-82
2022/04/26 13:52:33;;;;;;;6.90;3.70;;;;;;;15.31;46.28;100208.91;4861987;28;101068;-82
2022/04/26 13:54:59;;;;;;;6.50;3.40;;;;;;;15.60;46.03;100247.81;4876467;28;101434;-82
2022/04/26 13:57:25;;;;;;;7.57;3.72;;;;;;;15.59;46.23;100246.13;4878900;28;96708;-81
2022/04/26 13:59:50;;;;;;;7.57;3.95;;;;;;;15.46;46.11;100234.50;4861930;28;96937;-83
2022/04/26 14:02:18;;;;;;;7.45;3.92;;;;;;;15.63;46.02;100260.88;4862977;28;97998;-81
2022/04/26 14:04:44;;;;;;;5.38;4.13;;;;;;;15.57;45.89;100252.44;4893521;28;98583;-82
2022/04/26 14:07:10;;;;;;;6.38;4.10;;;;;;;15.39;45.88;100241.94;4878048;28;96683;-83
2022/04/26 14:09:36;;;;;;;8.40;4.63;;;;;;;15.36;45.88;100223.59;4877489;28;96880;-82
2022/04/26 14:12:02;;;;;;;6.10;3.90;;;;;;;15.37;45.73;100222.63;4893659;28;101766;-82
2022/04/26 14:22:42;;;;;;;5.15;2.92;;;;;;;15.75;45.74;100261.16;4880152;28;101302;-82
2022/04/26 14:25:09;;;;;;;7.45;4.07;;;;;;;15.54;45.70;100237.56;4877628;28;101724;-82
2022/04/26 14:27:36;;;;;;;6.50;4.22;;;;;;;15.55;45.22;100243.72;4877400;28;96562;-82
2022/04/26 14:30:03;;;;;;;6.03;4.00;;;;;;;15.57;45.44;100260.38;4878482;28;96895;-82
2022/04/26 14:32:28;;;;;;;5.38;3.95;;;;;;;15.65;44.83;100262.56;4862303;28;101432;-82
2022/04/26 14:34:54;;;;;;;6.07;3.95;;;;;;;15.48;44.35;100240.56;4861407;28;100961;-82
2022/04/26 14:37:22;;;;;;;5.95;4.10;;;;;;;15.36;44.65;100233.31;4846099;28;97195;-82
2022/04/26 14:39:49;;;;;;;6.97;4.07;;;;;;;15.40;44.79;100250.72;4861895;28;96951;-82
2022/04/26 14:42:14;;;;;;;6.97;4.50;;;;;;;15.44;44.66;100251.38;4877889;28;101745;-82
2022/04/26 14:44:40;;;;;;;6.38;4.72;;;;;;;15.44;44.91;100246.09;4860657;28;100455;-82
2022/04/26 14:47:06;;;;;;;7.63;4.57;;;;;;;15.43;45.06;100250.53;4846226;28;96672;-82
2022/04/26 14:49:34;;;;;;;6.18;4.03;;;;;;;15.48;45.47;100258.22;4861020;28;96927;-82
2022/04/26 14:52:00;;;;;;;7.72;4.70;;;;;;;15.56;45.09;100258.63;4861701;28;101471;-82
2022/04/26 14:54:25;;;;;;;9.65;4.68;;;;;;;15.35;45.37;100240.38;4861544;28;101696;-84
2022/04/26 14:56:51;;;;;;;7.43;5.30;;;;;;;15.40;45.35;100258.66;4861702;28;97207;-85
2022/04/26 14:59:18;;;;;;;9.20;4.50;;;;;;;15.49;45.35;100262.56;4861815;28;96958;-83
2022/04/26 15:01:49;;;;;;;8.65;3.75;;;;;;;15.57;44.98;100257.72;4876556;28;101749;-84
2022/04/26 15:04:19;;;;;;;7.63;4.57;;;;;;;15.42;44.98;100251.50;4876987;28;101360;-83
2022/04/26 15:06:45;;;;;;;8.30;4.65;;;;;;;15.49;44.92;100249.34;4861335;28;97297;-85
2022/04/26 15:17:27;;;;;;;5.95;4.20;;;;;;;15.35;45.24;100263.31;4880369;28;96595;-81
2022/04/26 15:19:52;;;;;;;8.05;4.60;;;;;;;15.29;45.47;100245.16;4860960;28;98024;-81
2022/04/26 15:22:22;;;;;;;7.68;4.43;;;;;;;15.48;44.97;100263.53;4861303;28;101353;-82
2022/04/26 15:24:49;;;;;;;9.48;5.60;;;;;;;15.42;45.13;100242.69;4876310;28;101614;-82
2022/04/26 15:27:18;;;;;;;4.90;3.75;;;;;;;15.49;44.98;100252.84;4860849;28;97443;-82